createdAt,value
2019-03-28T00:03:10.490Z,12.23
2019-03-28T00:05:38.921Z,11.20
2019-03-28T00:08:06.482Z,10.13
2019-03-28T00:10:34.048Z,10.47
2019-03-28T00:13:02.584Z,10.23
2019-03-28T00:15:30.958Z,10.10
2019-03-28T00:17:59.488Z,10.87
2019-03-28T00:20:27.055Z,11.33
2019-03-28T00:23:00.432Z,10.10
2019-03-28T00:25:28.021Z,10.50
2019-03-28T00:27:55.683Z,9.83
2019-03-28T00:30:23.356Z,9.73
2019-03-28T00:32:50.923Z,10.27
2019-03-28T00:35:18.587Z,10.67
2019-03-28T00:37:46.140Z,11.27
2019-03-28T00:40:13.702Z,10.43
2019-03-28T00:42:41.258Z,11.00
2019-03-28T00:45:08.838Z,10.27
2019-03-28T00:47:36.402Z,10.93
2019-03-28T00:50:04.866Z,10.47
2019-03-28T00:52:32.421Z,9.83
2019-03-28T00:54:59.983Z,10.83
2019-03-28T00:57:28.304Z,11.47
2019-03-28T00:59:55.858Z,10.37
2019-03-28T01:02:23.559Z,10.97
2019-03-28T01:04:51.126Z,11.00
2019-03-28T01:07:18.672Z,11.47
2019-03-28T01:09:46.335Z,10.83
2019-03-28T01:12:13.898Z,10.80
2019-03-28T01:14:41.557Z,10.87
2019-03-28T01:17:09.197Z,9.40
2019-03-28T01:19:36.790Z,11.37
2019-03-28T01:22:04.338Z,12.37
2019-03-28T01:24:31.888Z,11.40
2019-03-28T01:26:59.586Z,10.80
2019-03-28T01:29:27.141Z,11.60
2019-03-28T01:31:54.709Z,10.47
2019-03-28T01:34:22.280Z,10.23
2019-03-28T01:36:49.836Z,10.67
2019-03-28T01:39:17.380Z,10.70
2019-03-28T01:41:44.938Z,10.77
2019-03-28T01:44:12.530Z,10.17
2019-03-28T01:46:40.910Z,11.50
2019-03-28T01:49:08.568Z,11.33
2019-03-28T01:51:36.124Z,10.07
2019-03-28T01:54:04.747Z,11.73
2019-03-28T01:56:32.343Z,11.73
2019-03-28T01:59:00.833Z,10.83
2019-03-28T02:01:30.116Z,10.07
2019-03-28T02:03:57.322Z,11.80
2019-03-28T02:06:24.881Z,11.20
2019-03-28T02:08:52.435Z,12.10
2019-03-28T02:11:20.893Z,13.02
2019-03-28T02:13:48.455Z,12.43
2019-03-28T02:16:16.814Z,10.73
2019-03-28T02:18:44.473Z,11.23
2019-03-28T02:21:12.038Z,9.80
2019-03-28T02:23:40.243Z,10.93
2019-03-28T02:26:07.959Z,12.43
2019-03-28T02:28:35.546Z,9.70
2019-03-28T02:31:04.621Z,11.60
2019-03-28T02:33:32.198Z,11.53
2019-03-28T02:35:59.756Z,10.73
2019-03-28T02:38:27.347Z,11.17
2019-03-28T02:40:54.920Z,10.67
2019-03-28T02:43:22.873Z,11.50
2019-03-28T02:45:50.429Z,10.57
2019-03-28T02:48:17.987Z,10.90
2019-03-28T02:50:45.560Z,11.00
2019-03-28T02:53:13.834Z,10.10
2019-03-28T02:55:41.617Z,10.57
2019-03-28T02:58:09.196Z,10.30
2019-03-28T03:00:36.773Z,10.10
2019-03-28T03:03:05.963Z,10.27
2019-03-28T03:05:33.745Z,10.63
2019-03-28T03:08:01.305Z,11.40
2019-03-28T03:10:28.880Z,9.77
2019-03-28T03:12:57.227Z,10.03
2019-03-28T03:15:24.889Z,10.40
2019-03-28T03:17:52.459Z,10.93
2019-03-28T03:20:20.028Z,9.90
2019-03-28T03:22:47.582Z,9.90
2019-03-28T03:25:15.162Z,10.47
2019-03-28T03:27:57.047Z,10.70
2019-03-28T03:30:11.197Z,9.90
2019-03-28T03:32:38.793Z,10.20
2019-03-28T03:35:06.441Z,9.87
2019-03-28T03:37:34.015Z,9.60
2019-03-28T03:40:01.768Z,9.67
2019-03-28T03:42:29.439Z,8.53
2019-03-28T03:44:57.104Z,10.10
2019-03-28T03:47:24.679Z,9.73
2019-03-28T03:49:52.239Z,9.10
2019-03-28T03:52:19.804Z,10.17
2019-03-28T03:54:47.383Z,9.30
2019-03-28T03:57:15.014Z,9.97
2019-03-28T03:59:42.573Z,10.37
2019-03-28T04:02:11.246Z,10.30
2019-03-28T04:04:39.556Z,10.23
2019-03-28T04:07:07.235Z,9.47
2019-03-28T04:09:34.788Z,9.03
2019-03-28T04:12:02.445Z,9.80
2019-03-28T04:14:29.996Z,10.17
2019-03-28T04:16:57.542Z,9.90
2019-03-28T04:19:25.872Z,10.77
2019-03-28T04:21:53.459Z,10.07
2019-03-28T04:24:21.849Z,9.73
2019-03-28T04:26:49.488Z,10.20
2019-03-28T04:29:18.131Z,10.77
2019-03-28T04:31:45.683Z,9.37
2019-03-28T04:34:14.118Z,9.97
2019-03-28T04:36:42.282Z,11.10
2019-03-28T04:39:09.938Z,10.73
2019-03-28T04:41:37.522Z,10.00
2019-03-28T04:44:05.168Z,11.57
2019-03-28T04:46:33.539Z,10.77
2019-03-28T04:49:01.104Z,10.80
2019-03-28T04:51:28.681Z,10.57
2019-03-28T04:53:56.547Z,10.87
2019-03-28T04:56:23.968Z,11.30
2019-03-28T04:58:51.524Z,10.73
2019-03-28T05:01:19.110Z,10.47
2019-03-28T05:03:47.442Z,11.40
2019-03-28T05:06:14.992Z,11.13
2019-03-28T05:08:42.562Z,11.40
2019-03-28T05:11:10.144Z,10.70
2019-03-28T05:13:37.796Z,11.30
2019-03-28T05:16:05.624Z,10.77
2019-03-28T05:18:34.072Z,11.50
2019-03-28T05:21:01.712Z,11.17
2019-03-28T05:23:29.275Z,10.27
2019-03-28T05:25:56.847Z,10.53
2019-03-28T05:28:24.426Z,10.00
2019-03-28T05:30:52.069Z,10.77
2019-03-28T05:33:19.636Z,11.80
2019-03-28T05:35:47.193Z,9.07
2019-03-28T05:38:14.749Z,10.70
2019-03-28T05:40:42.300Z,10.43
2019-03-28T05:43:09.970Z,10.55
2019-03-28T05:45:37.532Z,10.27
2019-03-28T05:48:05.842Z,9.37
2019-03-28T05:50:34.018Z,10.30
2019-03-28T05:53:01.567Z,10.33
2019-03-28T05:55:29.207Z,9.00
2019-03-28T05:57:57.536Z,10.80
2019-03-28T06:00:25.101Z,9.80
2019-03-28T06:02:52.752Z,10.20
2019-03-28T06:05:20.294Z,8.50
2019-03-28T06:07:48.601Z,8.47
2019-03-28T06:10:17.035Z,8.80
2019-03-28T06:12:44.745Z,9.10
2019-03-28T06:15:12.292Z,8.67
2019-03-28T06:17:40.623Z,8.93
2019-03-28T06:20:08.295Z,9.03
2019-03-28T06:22:35.933Z,8.23
2019-03-28T06:25:05.927Z,8.67
2019-03-28T06:27:33.362Z,9.17
2019-03-28T06:30:02.073Z,8.60
2019-03-28T06:32:41.971Z,8.60
2019-03-28T06:34:56.316Z,7.63
2019-03-28T06:37:24.351Z,7.93
2019-03-28T06:39:52.685Z,7.57
2019-03-28T06:42:20.440Z,6.80
2019-03-28T06:44:47.979Z,7.70
2019-03-28T06:47:15.570Z,9.10
2019-03-28T06:49:43.137Z,7.43
2019-03-28T06:52:10.808Z,7.30
2019-03-28T06:54:38.471Z,7.03
2019-03-28T06:57:06.027Z,6.30
2019-03-28T06:59:37.586Z,7.13
2019-03-28T07:02:01.267Z,6.77
2019-03-28T07:04:28.812Z,6.93
2019-03-28T07:06:56.374Z,7.80
2019-03-28T07:09:24.042Z,7.40
2019-03-28T07:11:52.042Z,6.23
2019-03-28T07:14:19.605Z,7.10
2019-03-28T07:16:47.277Z,6.40
2019-03-28T07:19:14.841Z,6.37
2019-03-28T07:21:42.498Z,6.10
2019-03-28T07:24:10.064Z,6.30
2019-03-28T07:26:37.620Z,7.07
2019-03-28T07:29:05.183Z,6.00
2019-03-28T07:31:35.378Z,6.37
2019-03-28T07:34:00.767Z,6.63
2019-03-28T07:36:28.396Z,6.60
2019-03-28T07:38:55.945Z,7.20
2019-03-28T07:41:23.493Z,6.70
2019-03-28T07:43:51.034Z,6.60
2019-03-28T07:46:19.473Z,6.53
2019-03-28T07:48:47.029Z,6.67
2019-03-28T07:51:14.578Z,6.40
2019-03-28T07:53:42.185Z,6.97
2019-03-28T07:56:10.552Z,7.00
2019-03-28T07:58:38.214Z,6.83
2019-03-28T08:01:06.074Z,6.07
2019-03-28T08:03:33.735Z,7.60
2019-03-28T08:06:01.283Z,7.07
2019-03-28T08:08:38.667Z,6.73
2019-03-28T08:10:57.979Z,7.30
2019-03-28T08:13:25.528Z,6.93
2019-03-28T08:15:56.444Z,6.23
2019-03-28T08:18:24.069Z,6.03
2019-03-28T08:20:52.633Z,5.97
2019-03-28T08:23:20.198Z,6.20
2019-03-28T08:25:48.878Z,6.30
2019-03-28T08:28:16.458Z,6.37
2019-03-28T08:30:45.370Z,6.60
2019-03-28T08:33:11.677Z,6.27
2019-03-28T08:35:39.345Z,6.53
2019-03-28T08:38:09.731Z,5.77
2019-03-28T08:40:39.867Z,6.20
2019-03-28T08:43:06.810Z,6.57
2019-03-28T08:45:35.248Z,6.67
2019-03-28T08:48:03.724Z,6.97
2019-03-28T08:50:31.269Z,7.67
2019-03-28T08:52:58.828Z,7.13
2019-03-28T08:55:28.245Z,7.23
2019-03-28T08:57:55.801Z,7.57
2019-03-28T09:00:33.102Z,6.97
2019-03-28T09:02:51.399Z,7.53
2019-03-28T09:05:18.949Z,7.27
2019-03-28T09:07:46.497Z,7.20
2019-03-28T09:10:14.054Z,7.33
2019-03-28T09:12:41.715Z,6.37
2019-03-28T09:15:09.395Z,7.03
2019-03-28T09:17:37.363Z,6.37
2019-03-28T09:20:06.466Z,6.93
2019-03-28T09:22:34.025Z,6.33
2019-03-28T09:25:01.706Z,6.53
2019-03-28T09:27:29.268Z,6.60
2019-03-28T09:29:56.860Z,6.03
2019-03-28T09:32:25.207Z,5.60
2019-03-28T09:34:52.767Z,5.73
2019-03-28T09:37:20.326Z,5.60
2019-03-28T09:39:48.847Z,6.63
2019-03-28T09:42:16.450Z,5.43
2019-03-28T09:44:44.038Z,6.07
2019-03-28T09:47:11.586Z,6.67
2019-03-28T09:49:39.144Z,5.70
2019-03-28T09:52:06.723Z,5.53
2019-03-28T09:54:34.306Z,5.43
2019-03-28T09:57:01.861Z,4.33
2019-03-28T09:59:29.414Z,3.93
2019-03-28T10:01:56.969Z,4.73
2019-03-28T10:04:24.528Z,4.43
2019-03-28T10:06:52.260Z,5.40
2019-03-28T10:09:19.848Z,4.60
2019-03-28T10:11:48.171Z,4.23
2019-03-28T10:14:15.737Z,5.47
2019-03-28T10:16:43.415Z,5.43
2019-03-28T10:19:10.967Z,5.83
2019-03-28T10:21:38.545Z,5.50
2019-03-28T10:24:06.182Z,5.00
2019-03-28T10:26:33.755Z,4.83
2019-03-28T10:29:01.319Z,4.57
2019-03-28T10:31:28.889Z,4.43
2019-03-28T10:33:56.447Z,5.33
2019-03-28T10:36:24.117Z,4.10
2019-03-28T10:38:52.496Z,4.80
2019-03-28T10:41:20.070Z,3.93
2019-03-28T10:43:47.647Z,4.30
2019-03-28T10:46:15.295Z,4.70
2019-03-28T10:48:42.839Z,3.67
2019-03-28T10:51:10.405Z,3.30
2019-03-28T10:53:37.961Z,2.83
2019-03-28T10:56:05.539Z,3.30
2019-03-28T10:58:34.968Z,2.50
2019-03-28T11:01:00.790Z,3.20
2019-03-28T11:03:28.346Z,2.90
2019-03-28T11:05:55.996Z,3.40
2019-03-28T11:08:23.780Z,4.00
2019-03-28T11:10:51.433Z,3.40
2019-03-28T11:13:19.015Z,3.70
2019-03-28T11:15:46.571Z,3.40
2019-03-28T11:18:14.170Z,4.33
2019-03-28T11:20:41.818Z,4.37
2019-03-28T11:23:09.385Z,3.43
2019-03-28T11:25:37.167Z,3.30
2019-03-28T11:28:04.821Z,4.03
2019-03-28T11:30:32.414Z,4.00
2019-03-28T11:33:00.864Z,3.60
2019-03-28T11:35:28.438Z,3.60
2019-03-28T11:37:56.005Z,3.53
2019-03-28T11:40:24.619Z,3.57
2019-03-28T11:42:52.165Z,3.60
2019-03-28T11:45:19.630Z,3.97
2019-03-28T11:47:47.256Z,3.73
2019-03-28T11:50:17.150Z,4.00
2019-03-28T11:52:43.299Z,4.47
2019-03-28T11:55:10.872Z,4.03
2019-03-28T11:57:38.530Z,4.40
2019-03-28T12:00:09.653Z,5.03
2019-03-28T12:02:37.976Z,4.70
2019-03-28T12:05:05.526Z,4.47
2019-03-28T12:07:33.527Z,4.67
2019-03-28T12:10:01.098Z,4.47
2019-03-28T12:12:28.659Z,5.60
2019-03-28T12:14:56.466Z,5.27
2019-03-28T12:17:24.786Z,5.20
2019-03-28T12:19:52.545Z,5.50
2019-03-28T12:22:20.120Z,4.40
2019-03-28T12:24:47.796Z,4.50
2019-03-28T12:27:15.343Z,4.83
2019-03-28T12:29:42.890Z,4.53
2019-03-28T12:32:14.264Z,3.80
2019-03-28T12:34:38.140Z,4.40
2019-03-28T12:37:05.822Z,4.73
2019-03-28T12:39:33.373Z,5.20
2019-03-28T12:42:01.098Z,5.17
2019-03-28T12:44:29.449Z,4.83
2019-03-28T12:46:57.843Z,5.93
2019-03-28T12:49:25.907Z,5.07
2019-03-28T12:51:53.482Z,5.73
2019-03-28T12:54:21.055Z,4.83
2019-03-28T12:56:48.685Z,4.43
2019-03-28T12:59:16.254Z,4.73
2019-03-28T13:01:43.933Z,5.40
2019-03-28T13:04:11.669Z,5.57
2019-03-28T13:06:39.348Z,5.00
2019-03-28T13:09:07.233Z,5.20
2019-03-28T13:11:34.788Z,5.27
2019-03-28T13:14:02.365Z,5.47
2019-03-28T13:16:30.033Z,5.03
2019-03-28T13:18:57.603Z,4.97
2019-03-28T13:21:25.273Z,6.00
2019-03-28T13:23:52.830Z,4.90
2019-03-28T13:26:20.404Z,5.37
2019-03-28T13:28:47.991Z,4.57
2019-03-28T13:31:17.192Z,5.93
2019-03-28T13:33:45.535Z,5.93
2019-03-28T13:36:13.150Z,4.67
2019-03-28T13:38:41.815Z,3.90
2019-03-28T13:41:10.067Z,5.10
2019-03-28T13:43:37.601Z,4.57
2019-03-28T13:46:05.087Z,4.63
2019-03-28T13:48:32.614Z,4.17
2019-03-28T13:51:00.965Z,4.83
2019-03-28T13:53:38.824Z,4.67
2019-03-28T13:55:56.342Z,4.40
2019-03-28T13:58:23.968Z,4.30
2019-03-28T14:00:54.407Z,4.50
2019-03-28T14:03:19.815Z,3.67
2019-03-28T14:05:47.476Z,4.17
2019-03-28T14:08:15.714Z,4.07
2019-03-28T14:10:43.253Z,4.33
2019-03-28T14:13:11.537Z,4.37
2019-03-28T14:15:39.071Z,3.93
2019-03-28T14:18:06.580Z,3.67
2019-03-28T14:20:34.075Z,3.93
2019-03-28T14:23:01.655Z,4.03
2019-03-28T14:25:29.159Z,3.93
2019-03-28T14:27:56.632Z,4.20
2019-03-28T14:30:24.143Z,4.43
2019-03-28T14:32:53.398Z,4.70
2019-03-28T14:35:19.165Z,4.20
2019-03-28T14:37:46.729Z,3.73
2019-03-28T14:40:14.401Z,3.67
2019-03-28T14:42:41.886Z,3.90
2019-03-28T14:45:10.305Z,3.40
2019-03-28T14:47:37.799Z,3.83
2019-03-28T14:50:05.436Z,4.50
2019-03-28T14:52:33.659Z,4.07
2019-03-28T14:55:01.982Z,3.73
2019-03-28T14:57:29.464Z,4.30
2019-03-28T14:59:57.069Z,3.70
2019-03-28T15:02:24.619Z,3.97
2019-03-28T15:04:52.132Z,3.90
2019-03-28T15:07:19.610Z,3.73
2019-03-28T15:09:47.115Z,3.73
2019-03-28T15:12:14.604Z,3.87
2019-03-28T15:14:42.861Z,3.53
2019-03-28T15:17:10.433Z,3.53
2019-03-28T15:19:37.968Z,3.90
2019-03-28T15:22:05.452Z,3.63
2019-03-28T15:24:33.020Z,3.60
2019-03-28T15:27:00.687Z,2.83
2019-03-28T15:29:28.136Z,3.60
2019-03-28T15:31:55.698Z,4.27
2019-03-28T15:34:23.181Z,4.57
2019-03-28T15:36:51.455Z,3.70
2019-03-28T15:39:18.935Z,3.23
2019-03-28T15:41:47.285Z,3.40
2019-03-28T15:44:14.805Z,3.60
2019-03-28T15:46:42.284Z,4.30
2019-03-28T15:49:09.770Z,3.73
2019-03-28T15:51:37.717Z,4.30
2019-03-28T15:54:04.839Z,4.23
2019-03-28T15:56:33.207Z,4.10
2019-03-28T15:59:01.469Z,4.33
2019-03-28T16:01:29.724Z,3.50
2019-03-28T16:03:57.328Z,4.10
2019-03-28T16:06:24.831Z,3.70
2019-03-28T16:08:52.374Z,3.73
2019-03-28T16:11:19.839Z,3.47
2019-03-28T16:13:47.467Z,4.67
2019-03-28T16:16:14.963Z,4.00
2019-03-28T16:18:42.491Z,4.20
2019-03-28T16:21:09.977Z,3.20
2019-03-28T16:23:38.230Z,4.43
2019-03-28T16:26:05.757Z,4.70
2019-03-28T16:28:33.242Z,5.27
2019-03-28T16:31:00.878Z,5.90
2019-03-28T16:33:28.495Z,5.80
2019-03-28T16:35:56.757Z,5.50
2019-03-28T16:38:24.251Z,4.13
2019-03-28T16:40:52.506Z,5.37
2019-03-28T16:43:20.009Z,4.00
2019-03-28T16:45:47.550Z,4.80
2019-03-28T16:48:15.045Z,5.00
2019-03-28T16:50:42.563Z,4.17
2019-03-28T16:53:10.132Z,3.93
2019-03-28T16:55:38.355Z,5.40
2019-03-28T16:58:05.850Z,4.60
2019-03-28T17:00:34.258Z,4.93
2019-03-28T17:03:01.824Z,5.10
2019-03-28T17:05:29.850Z,5.80
2019-03-28T17:07:57.341Z,4.53
2019-03-28T17:10:47.657Z,4.70
2019-03-28T17:13:15.135Z,6.13
2019-03-28T17:15:43.406Z,18.67
2019-03-28T17:18:11.662Z,20.43
2019-03-28T17:20:39.226Z,20.43
2019-03-28T17:23:06.716Z,34.57
2019-03-28T17:25:34.973Z,16.60
2019-03-28T17:28:02.529Z,9.90
2019-03-28T17:30:30.111Z,19.60
2019-03-28T17:32:57.586Z,22.90
2019-03-28T17:35:25.843Z,26.70
2019-03-28T17:37:53.402Z,12.53
2019-03-28T17:40:21.893Z,6.50
2019-03-28T17:42:50.154Z,6.77
2019-03-28T17:45:16.994Z,6.10
2019-03-28T17:47:44.687Z,5.60
2019-03-28T17:50:12.361Z,4.62
2019-03-28T17:52:39.860Z,5.73
2019-03-28T17:55:07.370Z,5.27
2019-03-28T17:57:34.942Z,5.27
2019-03-28T18:00:04.948Z,5.43
2019-03-28T18:02:32.419Z,5.07
2019-03-28T18:05:09.302Z,4.27
2019-03-28T18:07:28.382Z,4.77
2019-03-28T18:09:55.944Z,5.13
2019-03-28T18:12:23.417Z,6.37
2019-03-28T18:14:51.780Z,4.73
2019-03-28T18:17:19.292Z,5.73
2019-03-28T18:19:46.828Z,5.47
2019-03-28T18:22:15.103Z,4.03
2019-03-28T18:24:42.664Z,4.63
2019-03-28T18:27:10.167Z,5.13
2019-03-28T18:29:37.653Z,4.40
2019-03-28T18:32:05.243Z,3.97
2019-03-28T18:34:32.804Z,4.97
2019-03-28T18:37:00.303Z,4.87
2019-03-28T18:39:28.999Z,4.90
2019-03-28T18:41:56.926Z,5.07
2019-03-28T18:44:24.428Z,5.20
2019-03-28T18:46:52.674Z,4.90
2019-03-28T18:49:20.167Z,5.20
2019-03-28T18:51:48.526Z,5.40
2019-03-28T18:54:20.009Z,5.47
2019-03-28T18:56:45.267Z,5.70
2019-03-28T18:59:12.857Z,6.40
2019-03-28T19:01:40.387Z,5.47
2019-03-28T19:04:07.929Z,5.67
2019-03-28T19:06:35.425Z,5.87
2019-03-28T19:09:04.812Z,5.70
2019-03-28T19:11:32.316Z,6.40
2019-03-28T19:13:59.805Z,6.07
2019-03-28T19:16:28.151Z,6.63
2019-03-28T19:18:55.724Z,6.65
2019-03-28T19:21:23.280Z,6.00
2019-03-28T19:23:50.861Z,5.83
2019-03-28T19:26:18.320Z,5.70
2019-03-28T19:28:46.597Z,6.13
2019-03-28T19:31:14.178Z,5.53
2019-03-28T19:33:42.535Z,5.67
2019-03-28T19:36:10.035Z,5.53
2019-03-28T19:38:37.528Z,5.50
2019-03-28T19:41:05.007Z,4.90
2019-03-28T19:43:32.582Z,5.30
2019-03-28T19:46:00.884Z,5.10
2019-03-28T19:48:28.503Z,5.27
2019-03-28T19:50:56.034Z,5.37
2019-03-28T19:53:24.301Z,5.10
2019-03-28T19:55:52.591Z,5.10
2019-03-28T19:58:20.869Z,5.37
2019-03-28T20:00:49.259Z,4.93
2019-03-28T20:03:16.823Z,5.63
2019-03-28T20:05:47.778Z,6.07
2019-03-28T20:08:15.832Z,5.53
2019-03-28T20:10:44.885Z,5.93
2019-03-28T20:13:11.556Z,5.90
2019-03-28T20:15:39.042Z,5.33
2019-03-28T20:18:06.542Z,6.07
2019-03-28T20:20:34.134Z,5.87
2019-03-28T20:23:01.676Z,6.80
2019-03-28T20:25:29.165Z,6.03
2019-03-28T20:27:56.685Z,5.90
2019-03-28T20:30:24.170Z,6.50
2019-03-28T20:32:52.527Z,6.37
2019-03-28T20:35:20.109Z,7.20
2019-03-28T20:37:48.412Z,5.00
2019-03-28T20:40:15.910Z,5.77
2019-03-28T20:42:44.272Z,5.57
2019-03-28T20:45:11.755Z,5.27
2019-03-28T20:47:40.008Z,6.83
2019-03-28T20:50:07.614Z,6.20
2019-03-28T20:52:35.121Z,6.97
2019-03-28T20:55:02.804Z,6.03
2019-03-28T20:57:30.361Z,5.47
2019-03-28T20:59:58.859Z,6.53
2019-03-28T21:02:26.405Z,5.43
2019-03-28T21:04:53.895Z,5.07
2019-03-28T21:07:22.160Z,5.60
2019-03-28T21:09:49.651Z,5.90
2019-03-28T21:12:18.002Z,5.90
2019-03-28T21:14:48.245Z,5.90
2019-03-28T21:17:16.767Z,5.93
2019-03-28T21:19:44.779Z,5.93
2019-03-28T21:22:11.871Z,6.40
2019-03-28T21:24:40.128Z,5.80
2019-03-28T21:27:07.690Z,5.83
2019-03-28T21:29:47.969Z,5.97
2019-03-28T21:32:02.683Z,6.17
2019-03-28T21:34:30.177Z,5.17
2019-03-28T21:36:58.773Z,5.37
2019-03-28T21:39:25.404Z,5.87
2019-03-28T21:41:53.205Z,5.33
2019-03-28T21:44:20.707Z,5.40
2019-03-28T21:46:48.196Z,5.67
2019-03-28T21:49:15.683Z,5.70
2019-03-28T21:51:45.887Z,5.23
2019-03-28T21:54:11.508Z,5.60
2019-03-28T21:56:41.407Z,5.80
2019-03-28T21:59:06.583Z,5.63
2019-03-28T22:01:34.826Z,5.80
2019-03-28T22:04:02.317Z,5.53
2019-03-28T22:06:42.462Z,5.73
2019-03-28T22:08:58.220Z,5.13
2019-03-28T22:11:25.577Z,6.33
2019-03-28T22:13:53.076Z,6.23
2019-03-28T22:16:21.331Z,6.63
2019-03-28T22:18:48.807Z,5.83
2019-03-28T22:21:17.058Z,5.62
2019-03-28T22:23:44.649Z,6.50
2019-03-28T22:26:12.905Z,5.73
2019-03-28T22:28:40.374Z,5.23
2019-03-28T22:31:07.933Z,5.93
2019-03-28T22:33:35.421Z,5.97
2019-03-28T22:36:04.378Z,6.53
2019-03-28T22:38:31.853Z,5.97
2019-03-28T22:41:00.870Z,6.43
2019-03-28T22:43:28.345Z,6.00
2019-03-28T22:45:56.618Z,6.10
2019-03-28T22:48:24.997Z,5.97
2019-03-28T22:50:53.258Z,5.97
2019-03-28T22:53:20.736Z,5.70
2019-03-28T22:55:48.211Z,6.10
2019-03-28T22:58:16.460Z,6.23
2019-03-28T23:00:44.790Z,6.40
2019-03-28T23:03:11.497Z,6.50
2019-03-28T23:05:38.995Z,6.77
2019-03-28T23:08:07.663Z,12.83
2019-03-28T23:10:35.916Z,8.87
2019-03-28T23:13:04.439Z,9.50
2019-03-28T23:15:32.794Z,7.63
2019-03-28T23:18:00.274Z,7.50
2019-03-28T23:20:28.528Z,6.90
2019-03-28T23:22:56.091Z,6.70
2019-03-28T23:25:23.660Z,7.03
2019-03-28T23:27:51.149Z,7.07
2019-03-28T23:30:19.599Z,7.10
2019-03-28T23:32:47.099Z,6.93
2019-03-28T23:35:15.453Z,7.18
2019-03-28T23:37:43.536Z,7.33
2019-03-28T23:40:11.071Z,8.47
2019-03-28T23:42:39.317Z,6.53
2019-03-28T23:45:06.804Z,7.37
2019-03-28T23:47:34.422Z,8.17
2019-03-28T23:50:03.588Z,8.20
2019-03-28T23:52:31.071Z,7.73
2019-03-28T23:54:59.333Z,7.90
2019-03-28T23:57:26.816Z,7.67
2019-03-28T23:59:55.081Z,6.73
